ENHD/HAU METAR and TAF weather

Enter ICAO airport designator
Station Type Date Time Source
ENHD METAR 2020/02/21 14:20 UTC NOAA

ENHD 211420Z 21031G42KT 8000 VCSH SCT012 BKN017 07/05 Q0993


Station Type Date Time Source
ENHD Decoded METAR 2020/02/21 14:20 UTC NOAA

Haugesund / Karmoy, Norway (ENHD) 59-21N 005-13E 24M
Feb 21, 2020 - 09:20 AM EST / 2020.02.21 1420 UTC
Wind: from the SSW (210 degrees) at 36 MPH (31 KT) gusting to 48 MPH (42 KT):0
Visibility: 4 mile(s):0
Sky conditions: mostly cloudy
Weather: showers in the vicinity
Temperature: 44 F (7 C)
Dew Point: 41 F (5 C)
Relative Humidity: 87%
Pressure (altimeter): 29.32 in. Hg (0993 hPa)
ob: ENHD 211420Z 21031G42KT 8000 VCSH SCT012 BKN017 07/05 Q0993
cycle: 14

Station Type Date Time Source
ENHD TAF UTC NOAA

Error!

Example: see airport list